sensor_id;sensor_type;location;lat;lon;timestamp;temperature;humidity
83472;SHT30;74051;47.120;18.370;2024-01-11T00:00:09;-6.56;96.60
83472;SHT30;74051;47.120;18.370;2024-01-11T00:02:35;-6.38;96.77
83472;SHT30;74051;47.120;18.370;2024-01-11T00:05:02;-6.39;96.03
83472;SHT30;74051;47.120;18.370;2024-01-11T00:07:29;-6.45;94.29
83472;SHT30;74051;47.120;18.370;2024-01-11T00:09:56;-6.43;95.93
83472;SHT30;74051;47.120;18.370;2024-01-11T00:12:22;-6.50;94.99
83472;SHT30;74051;47.120;18.370;2024-01-11T00:14:48;-6.50;95.59
83472;SHT30;74051;47.120;18.370;2024-01-11T00:17:15;-6.42;94.96
83472;SHT30;74051;47.120;18.370;2024-01-11T00:19:42;-6.48;95.57
83472;SHT30;74051;47.120;18.370;2024-01-11T00:22:08;-6.49;94.88
83472;SHT30;74051;47.120;18.370;2024-01-11T00:24:35;-6.42;96.20
83472;SHT30;74051;47.120;18.370;2024-01-11T00:27:01;-6.49;95.08
83472;SHT30;74051;47.120;18.370;2024-01-11T00:29:28;-6.42;96.04
83472;SHT30;74051;47.120;18.370;2024-01-11T00:31:54;-6.56;94.88
83472;SHT30;74051;47.120;18.370;2024-01-11T00:34:21;-6.62;95.51
83472;SHT30;74051;47.120;18.370;2024-01-11T00:36:48;-6.63;94.92
83472;SHT30;74051;47.120;18.370;2024-01-11T00:39:14;-6.53;95.57
83472;SHT30;74051;47.120;18.370;2024-01-11T00:41:41;-6.46;95.29
83472;SHT30;74051;47.120;18.370;2024-01-11T00:44:07;-6.49;95.93
83472;SHT30;74051;47.120;18.370;2024-01-11T00:46:34;-6.50;95.65
83472;SHT30;74051;47.120;18.370;2024-01-11T00:49:01;-6.59;95.53
83472;SHT30;74051;47.120;18.370;2024-01-11T00:51:27;-6.63;94.14
83472;SHT30;74051;47.120;18.370;2024-01-11T00:53:54;-6.65;94.88
83472;SHT30;74051;47.120;18.370;2024-01-11T00:56:21;-6.62;95.78
83472;SHT30;74051;47.120;18.370;2024-01-11T00:58:47;-6.69;94.83
83472;SHT30;74051;47.120;18.370;2024-01-11T01:01:14;-6.56;95.33
83472;SHT30;74051;47.120;18.370;2024-01-11T01:03:41;-6.68;94.65
83472;SHT30;74051;47.120;18.370;2024-01-11T01:06:07;-6.66;95.37
83472;SHT30;74051;47.120;18.370;2024-01-11T01:08:34;-6.70;95.38
83472;SHT30;74051;47.120;18.370;2024-01-11T01:11:00;-6.68;95.86
83472;SHT30;74051;47.120;18.370;2024-01-11T01:13:27;-6.69;95.51
83472;SHT30;74051;47.120;18.370;2024-01-11T01:15:53;-6.73;95.16
83472;SHT30;74051;47.120;18.370;2024-01-11T01:18:19;-6.68;95.53
83472;SHT30;74051;47.120;18.370;2024-01-11T01:20:46;-6.70;95.12
83472;SHT30;74051;47.120;18.370;2024-01-11T01:23:12;-6.73;94.98
83472;SHT30;74051;47.120;18.370;2024-01-11T01:25:39;-6.76;94.88
83472;SHT30;74051;47.120;18.370;2024-01-11T01:28:05;-6.76;94.32
83472;SHT30;74051;47.120;18.370;2024-01-11T01:30:31;-6.77;95.20
83472;SHT30;74051;47.120;18.370;2024-01-11T01:32:58;-6.80;95.11
83472;SHT30;74051;47.120;18.370;2024-01-11T01:35:24;-6.84;94.77
83472;SHT30;74051;47.120;18.370;2024-01-11T01:37:51;-6.89;94.81
83472;SHT30;74051;47.120;18.370;2024-01-11T01:40:17;-6.84;95.41
83472;SHT30;74051;47.120;18.370;2024-01-11T01:42:45;-6.89;94.96
83472;SHT30;74051;47.120;18.370;2024-01-11T01:45:12;-6.63;97.22
83472;SHT30;74051;47.120;18.370;2024-01-11T01:47:40;-6.70;95.52
83472;SHT30;74051;47.120;18.370;2024-01-11T01:50:07;-6.77;95.69
83472;SHT30;74051;47.120;18.370;2024-01-11T01:52:36;-6.83;94.58
83472;SHT30;74051;47.120;18.370;2024-01-11T01:55:04;-6.70;96.59
83472;SHT30;74051;47.120;18.370;2024-01-11T01:57:34;-6.72;95.48
83472;SHT30;74051;47.120;18.370;2024-01-11T02:00:01;-6.80;95.75
83472;SHT30;74051;47.120;18.370;2024-01-11T02:02:39;-7.10;93.18
83472;SHT30;74051;47.120;18.370;2024-01-11T02:05:06;-7.07;94.99
83472;SHT30;74051;47.120;18.370;2024-01-11T02:07:33;-7.38;92.38
83472;SHT30;74051;47.120;18.370;2024-01-11T02:10:01;-7.28;96.43
83472;SHT30;74051;47.120;18.370;2024-01-11T02:12:28;-7.17;96.82
83472;SHT30;74051;47.120;18.370;2024-01-11T02:14:55;-7.07;96.60
83472;SHT30;74051;47.120;18.370;2024-01-11T02:17:22;-7.00;96.53
83472;SHT30;74051;47.120;18.370;2024-01-11T02:19:48;-7.01;95.92
83472;SHT30;74051;47.120;18.370;2024-01-11T02:22:22;-7.25;94.66
83472;SHT30;74051;47.120;18.370;2024-01-11T02:24:50;-7.17;95.91
83472;SHT30;74051;47.120;18.370;2024-01-11T02:27:17;-7.10;96.19
83472;SHT30;74051;47.120;18.370;2024-01-11T02:29:43;-7.05;94.51
83472;SHT30;74051;47.120;18.370;2024-01-11T02:32:09;-7.07;95.45
83472;SHT30;74051;47.120;18.370;2024-01-11T02:34:36;-7.05;95.64
83472;SHT30;74051;47.120;18.370;2024-01-11T02:37:04;-6.91;97.06
83472;SHT30;74051;47.120;18.370;2024-01-11T06:56:33;-6.50;87.73
83472;SHT30;74051;47.120;18.370;2024-01-11T07:12:22;-4.79;82.90
83472;SHT30;74051;47.120;18.370;2024-01-11T07:14:48;-4.52;83.87
83472;SHT30;74051;47.120;18.370;2024-01-11T07:17:15;-4.30;82.18
83472;SHT30;74051;47.120;18.370;2024-01-11T07:19:41;-4.33;79.11
83472;SHT30;74051;47.120;18.370;2024-01-11T07:22:08;-3.45;83.45
83472;SHT30;74051;47.120;18.370;2024-01-11T07:24:35;-2.80;77.31
83472;SHT30;74051;47.120;18.370;2024-01-11T07:27:05;-2.66;71.62
83472;SHT30;74051;47.120;18.370;2024-01-11T07:29:31;-1.42;82.16
83472;SHT30;74051;47.120;18.370;2024-01-11T07:31:59;-1.05;70.27
83472;SHT30;74051;47.120;18.370;2024-01-11T07:34:27;-1.48;71.06
83472;SHT30;74051;47.120;18.370;2024-01-11T07:36:53;-0.37;68.54
83472;SHT30;74051;47.120;18.370;2024-01-11T07:39:20;0.04;72.47
83472;SHT30;74051;47.120;18.370;2024-01-11T07:41:48;0.46;63.16
83472;SHT30;74051;47.120;18.370;2024-01-11T07:44:16;1.17;64.89
83472;SHT30;74051;47.120;18.370;2024-01-11T07:46:47;1.17;60.45
83472;SHT30;74051;47.120;18.370;2024-01-11T07:49:15;1.23;63.29
83472;SHT30;74051;47.120;18.370;2024-01-11T07:51:42;1.65;58.19
83472;SHT30;74051;47.120;18.370;2024-01-11T07:54:10;2.61;70.57
83472;SHT30;74051;47.120;18.370;2024-01-11T07:56:36;2.02;59.54
83472;SHT30;74051;47.120;18.370;2024-01-11T07:59:02;2.45;65.27
83472;SHT30;74051;47.120;18.370;2024-01-11T12:30:51;5.30;54.95
83472;SHT30;74051;47.120;18.370;2024-01-11T13:09:50;4.34;59.85
83472;SHT30;74051;47.120;18.370;2024-01-11T13:16:42;4.87;62.68
83472;SHT30;74051;47.120;18.370;2024-01-11T13:23:25;4.50;59.40
83472;SHT30;74051;47.120;18.370;2024-01-11T15:04:12;1.35;74.12
83472;SHT30;74051;47.120;18.370;2024-01-11T15:06:39;1.17;75.50
83472;SHT30;74051;47.120;18.370;2024-01-11T21:00:29;0.62;71.92
83472;SHT30;74051;47.120;18.370;2024-01-11T21:02:56;0.72;72.57
83472;SHT30;74051;47.120;18.370;2024-01-11T21:05:23;0.60;70.68
83472;SHT30;74051;47.120;18.370;2024-01-11T21:07:52;0.60;69.25
83472;SHT30;74051;47.120;18.370;2024-01-11T21:10:19;0.72;69.06
83472;SHT30;74051;47.120;18.370;2024-01-11T21:12:45;0.72;68.62
83472;SHT30;74051;47.120;18.370;2024-01-11T21:15:14;0.70;69.22
83472;SHT30;74051;47.120;18.370;2024-01-11T21:17:41;0.75;71.62
83472;SHT30;74051;47.120;18.370;2024-01-11T21:20:07;0.75;69.70
83472;SHT30;74051;47.120;18.370;2024-01-11T21:22:34;0.80;70.84
83472;SHT30;74051;47.120;18.370;2024-01-11T21:25:01;0.79;69.53
83472;SHT30;74051;47.120;18.370;2024-01-11T21:27:27;0.81;68.96
83472;SHT30;74051;47.120;18.370;2024-01-11T21:29:53;0.81;68.46
83472;SHT30;74051;47.120;18.370;2024-01-11T21:32:20;0.80;70.20
83472;SHT30;74051;47.120;18.370;2024-01-11T21:34:47;0.73;69.94
83472;SHT30;74051;47.120;18.370;2024-01-11T21:37:13;0.70;68.97
83472;SHT30;74051;47.120;18.370;2024-01-11T21:39:39;0.72;67.94
83472;SHT30;74051;47.120;18.370;2024-01-11T21:42:06;0.73;71.09
83472;SHT30;74051;47.120;18.370;2024-01-11T21:44:34;0.75;72.00
83472;SHT30;74051;47.120;18.370;2024-01-11T21:47:00;0.73;70.07
83472;SHT30;74051;47.120;18.370;2024-01-11T21:49:26;0.73;71.31
83472;SHT30;74051;47.120;18.370;2024-01-11T21:51:53;0.73;71.07
83472;SHT30;74051;47.120;18.370;2024-01-11T21:54:19;0.75;70.22
83472;SHT30;74051;47.120;18.370;2024-01-11T21:56:46;0.73;70.73
83472;SHT30;74051;47.120;18.370;2024-01-11T21:59:12;0.75;69.35
83472;SHT30;74051;47.120;18.370;2024-01-11T22:01:42;0.73;69.96
83472;SHT30;74051;47.120;18.370;2024-01-11T22:04:10;0.65;71.36
83472;SHT30;74051;47.120;18.370;2024-01-11T22:06:37;0.68;68.46
83472;SHT30;74051;47.120;18.370;2024-01-11T22:09:03;0.69;69.08
83472;SHT30;74051;47.120;18.370;2024-01-11T22:11:31;0.69;70.34
83472;SHT30;74051;47.120;18.370;2024-01-11T22:13:58;0.59;70.47
83472;SHT30;74051;47.120;18.370;2024-01-11T22:16:24;0.55;68.64
83472;SHT30;74051;47.120;18.370;2024-01-11T22:18:51;0.55;69.63
83472;SHT30;74051;47.120;18.370;2024-01-11T22:21:17;0.63;69.75
83472;SHT30;74051;47.120;18.370;2024-01-11T22:23:43;0.60;67.52
83472;SHT30;74051;47.120;18.370;2024-01-11T22:26:09;0.63;68.87
83472;SHT30;74051;47.120;18.370;2024-01-11T22:28:36;0.69;68.72
83472;SHT30;74051;47.120;18.370;2024-01-11T22:31:02;0.73;68.00
83472;SHT30;74051;47.120;18.370;2024-01-11T22:33:29;0.89;65.94
83472;SHT30;74051;47.120;18.370;2024-01-11T22:35:55;0.96;66.28
83472;SHT30;74051;47.120;18.370;2024-01-11T22:38:21;0.93;65.74
83472;SHT30;74051;47.120;18.370;2024-01-11T22:40:47;0.94;65.93
83472;SHT30;74051;47.120;18.370;2024-01-11T22:43:15;0.98;66.48
83472;SHT30;74051;47.120;18.370;2024-01-11T22:45:41;1.00;66.19
83472;SHT30;74051;47.120;18.370;2024-01-11T22:48:08;1.00;66.63
83472;SHT30;74051;47.120;18.370;2024-01-11T22:50:34;1.00;67.30
83472;SHT30;74051;47.120;18.370;2024-01-11T22:53:00;0.98;67.15
83472;SHT30;74051;47.120;18.370;2024-01-11T22:55:27;0.94;66.36
83472;SHT30;74051;47.120;18.370;2024-01-11T22:57:53;0.97;67.20
83472;SHT30;74051;47.120;18.370;2024-01-11T23:00:19;1.05;66.68
83472;SHT30;74051;47.120;18.370;2024-01-11T23:02:52;1.03;66.38
83472;SHT30;74051;47.120;18.370;2024-01-11T23:05:18;1.05;66.35
83472;SHT30;74051;47.120;18.370;2024-01-11T23:07:46;0.89;67.19
83472;SHT30;74051;47.120;18.370;2024-01-11T23:10:12;0.81;67.33
83472;SHT30;74051;47.120;18.370;2024-01-11T23:12:40;0.72;68.30
83472;SHT30;74051;47.120;18.370;2024-01-11T23:15:07;0.75;67.16
83472;SHT30;74051;47.120;18.370;2024-01-11T23:17:33;0.63;69.04
83472;SHT30;74051;47.120;18.370;2024-01-11T23:20:01;0.56;67.77
83472;SHT30;74051;47.120;18.370;2024-01-11T23:22:30;0.49;69.41
83472;SHT30;74051;47.120;18.370;2024-01-11T23:24:56;0.49;69.56
83472;SHT30;74051;47.120;18.370;2024-01-11T23:27:23;0.48;68.83
83472;SHT30;74051;47.120;18.370;2024-01-11T23:29:49;0.44;68.68
83472;SHT30;74051;47.120;18.370;2024-01-11T23:32:16;0.39;70.40
83472;SHT30;74051;47.120;18.370;2024-01-11T23:34:42;0.41;70.79
83472;SHT30;74051;47.120;18.370;2024-01-11T23:37:08;0.29;70.82
83472;SHT30;74051;47.120;18.370;2024-01-11T23:39:35;0.35;69.43
83472;SHT30;74051;47.120;18.370;2024-01-11T23:42:02;0.26;72.26
83472;SHT30;74051;47.120;18.370;2024-01-11T23:44:28;0.19;73.87
83472;SHT30;74051;47.120;18.370;2024-01-11T23:46:55;0.17;73.99
83472;SHT30;74051;47.120;18.370;2024-01-11T23:49:21;0.05;71.71
83472;SHT30;74051;47.120;18.370;2024-01-11T23:51:48;0.00;75.18
83472;SHT30;74051;47.120;18.370;2024-01-11T23:54:14;-0.10;78.36
83472;SHT30;74051;47.120;18.370;2024-01-11T23:56:41;-0.11;76.95
83472;SHT30;74051;47.120;18.370;2024-01-11T23:59:10;-0.23;74.09
